createdAt,value
2023-02-04T00:01:36.261Z,-4.48
2023-02-04T00:03:38.996Z,-4.48
2023-02-04T00:05:41.765Z,-4.50
2023-02-04T00:07:44.605Z,-4.51
2023-02-04T00:09:47.488Z,-4.54
2023-02-04T00:11:50.159Z,-4.56
2023-02-04T00:13:52.811Z,-4.55
2023-02-04T00:15:55.692Z,-4.55
2023-02-04T00:17:58.553Z,-4.57
2023-02-04T00:20:01.328Z,-4.58
2023-02-04T00:22:05.148Z,-4.58
2023-02-04T00:24:07.895Z,-4.61
2023-02-04T00:26:10.705Z,-4.63
2023-02-04T00:28:13.414Z,-4.60
2023-02-04T00:30:16.179Z,-4.61
2023-02-04T00:32:18.940Z,-4.58
2023-02-04T00:34:21.930Z,-4.60
2023-02-04T00:36:24.586Z,-4.67
2023-02-04T00:38:27.358Z,-4.65
2023-02-04T00:40:30.340Z,-4.67
2023-02-04T00:42:33.195Z,-4.69
2023-02-04T00:44:36.862Z,-4.67
2023-02-04T00:46:39.642Z,-4.65
2023-02-04T00:48:42.313Z,-4.67
2023-02-04T00:50:45.064Z,-4.69
2023-02-04T00:52:47.780Z,-4.71
2023-02-04T00:54:50.434Z,-4.68
2023-02-04T00:56:53.394Z,-4.75
2023-02-04T00:58:55.994Z,-4.72
2023-02-04T01:00:58.729Z,-4.74
2023-02-04T01:03:01.542Z,-4.74
2023-02-04T01:05:04.254Z,-4.75
2023-02-04T01:07:06.948Z,-4.75
2023-02-04T01:09:10.471Z,-4.76
2023-02-04T01:11:13.215Z,-4.78
2023-02-04T01:13:15.879Z,-4.80
2023-02-04T01:15:18.870Z,-4.79
2023-02-04T01:17:21.668Z,-4.78
2023-02-04T01:19:24.296Z,-4.75
2023-02-04T01:21:27.023Z,-4.77
2023-02-04T01:23:29.688Z,-4.78
2023-02-04T01:25:32.422Z,-4.76
2023-02-04T01:27:35.074Z,-4.77
2023-02-04T01:29:37.694Z,-4.77
2023-02-04T01:31:40.397Z,-4.83
2023-02-04T01:33:43.375Z,-4.78
2023-02-04T01:35:46.045Z,-4.80
2023-02-04T01:37:48.758Z,-4.84
2023-02-04T01:39:51.567Z,-4.83
2023-02-04T01:41:54.359Z,-4.84
2023-02-04T01:43:57.049Z,-4.85
2023-02-04T01:46:00.270Z,-4.86
2023-02-04T01:48:07.263Z,-4.87
2023-02-04T01:50:13.734Z,-4.88
2023-02-04T01:52:17.822Z,-4.90
2023-02-04T01:54:22.288Z,-4.92
2023-02-04T01:56:27.372Z,-4.92
2023-02-04T01:58:33.828Z,-4.97
2023-02-04T02:00:36.768Z,-4.95
2023-02-04T02:02:49.076Z,-4.99
2023-02-04T02:04:51.743Z,-5.03
2023-02-04T02:06:58.910Z,-5.03
2023-02-04T02:09:02.196Z,-5.05
2023-02-04T02:11:05.721Z,-5.00
2023-02-04T02:13:11.699Z,-4.99
2023-02-04T02:15:15.869Z,-4.93
2023-02-04T02:17:18.560Z,-4.93
2023-02-04T02:19:31.365Z,-4.94
2023-02-04T02:21:53.682Z,-4.94
2023-02-04T02:24:01.291Z,-4.94
2023-02-04T02:26:03.915Z,-4.97
2023-02-04T02:28:12.766Z,-5.00
2023-02-04T02:30:17.932Z,-4.99
2023-02-04T02:32:21.221Z,-4.97
2023-02-04T02:34:25.501Z,-4.96
2023-02-04T02:36:28.230Z,-4.98
2023-02-04T02:38:30.996Z,-4.99
2023-02-04T02:40:33.873Z,-4.99
2023-02-04T02:42:37.401Z,-5.05
2023-02-04T02:44:40.094Z,-5.00
2023-02-04T02:46:42.795Z,-4.99
2023-02-04T02:48:45.514Z,-4.98
2023-02-04T02:50:48.952Z,-4.96
2023-02-04T02:52:52.784Z,-4.95
2023-02-04T02:54:55.432Z,-4.95
2023-02-04T02:56:59.516Z,-4.96
2023-02-04T02:59:16.156Z,-4.95
2023-02-04T03:01:18.966Z,-5.00
2023-02-04T03:03:26.205Z,-4.97
2023-02-04T03:05:33.259Z,-4.99
2023-02-04T03:07:36.485Z,-4.96
2023-02-04T03:09:39.297Z,-4.95
2023-02-04T03:11:42.073Z,-4.95
2023-02-04T03:13:45.181Z,-4.94
2023-02-04T03:15:48.579Z,-4.92
2023-02-04T03:17:56.585Z,-4.91
2023-02-04T03:19:59.558Z,-4.90
2023-02-04T03:22:04.497Z,-4.90
2023-02-04T03:24:07.708Z,-4.94
2023-02-04T03:26:10.417Z,-4.96
2023-02-04T03:28:13.108Z,-4.95
2023-02-04T03:30:16.046Z,-4.98
2023-02-04T03:32:18.718Z,-4.93
2023-02-04T03:34:22.969Z,-4.87
2023-02-04T03:36:25.722Z,-4.85
2023-02-04T03:38:28.461Z,-4.87
2023-02-04T03:40:31.442Z,-4.90
2023-02-04T03:42:35.099Z,-4.92
2023-02-04T03:44:37.867Z,-4.93
2023-02-04T03:46:40.597Z,-4.91
2023-02-04T03:48:43.371Z,-4.93
2023-02-04T03:50:46.151Z,-4.95
2023-02-04T03:52:50.313Z,-4.99
2023-02-04T03:54:52.986Z,-5.04
2023-02-04T03:56:55.686Z,-5.03
2023-02-04T03:58:58.296Z,-5.03
2023-02-04T04:01:01.165Z,-5.02
2023-02-04T04:03:03.949Z,-4.98
2023-02-04T04:05:07.870Z,-4.96
2023-02-04T04:07:10.661Z,-4.95
2023-02-04T04:09:13.376Z,-4.96
2023-02-04T04:11:16.219Z,-4.95
2023-02-04T04:13:18.921Z,-4.98
2023-02-04T04:15:21.569Z,-4.96
2023-02-04T04:17:24.270Z,-4.92
2023-02-04T04:19:26.979Z,-4.93
2023-02-04T04:21:29.711Z,-4.99
2023-02-04T04:23:32.474Z,-4.93
2023-02-04T04:25:35.165Z,-4.99
2023-02-04T04:27:37.868Z,-5.00
2023-02-04T04:29:40.577Z,-5.02
2023-02-04T04:31:45.170Z,-5.04
2023-02-04T04:33:47.941Z,-5.06
2023-02-04T04:35:50.686Z,-5.07
2023-02-04T04:37:53.447Z,-5.04
2023-02-04T04:39:56.113Z,-5.03
2023-02-04T04:41:58.851Z,-5.00
2023-02-04T04:44:01.728Z,-5.02
2023-02-04T04:46:04.506Z,-5.03
2023-02-04T04:48:07.168Z,-5.03
2023-02-04T04:50:10.383Z,-5.12
2023-02-04T04:52:13.148Z,-5.10
2023-02-04T04:54:15.864Z,-5.06
2023-02-04T04:56:19.545Z,-5.08
2023-02-04T04:58:22.237Z,-5.11
2023-02-04T05:00:25.021Z,-5.08
2023-02-04T05:02:27.899Z,-5.12
2023-02-04T05:04:30.699Z,-5.10
2023-02-04T05:06:33.473Z,-5.08
2023-02-04T05:08:36.187Z,-5.14
2023-02-04T05:10:40.067Z,-5.06
2023-02-04T05:12:42.795Z,-5.07
2023-02-04T05:14:45.550Z,-5.00
2023-02-04T05:16:48.347Z,-4.89
2023-02-04T05:18:51.008Z,-4.82
2023-02-04T05:20:53.687Z,-4.82
2023-02-04T05:22:56.626Z,-4.79
2023-02-04T05:24:59.334Z,-4.79
2023-02-04T05:27:02.114Z,-4.71
2023-02-04T05:29:05.066Z,-4.73
2023-02-04T05:31:08.043Z,-4.72
2023-02-04T05:33:10.794Z,-4.67
2023-02-04T05:35:13.479Z,-4.63
2023-02-04T05:37:17.729Z,-4.60
2023-02-04T05:39:20.535Z,-4.58
2023-02-04T05:41:23.371Z,-4.54
2023-02-04T05:43:26.087Z,-4.49
2023-02-04T05:45:28.792Z,-4.50
2023-02-04T05:47:31.478Z,-4.43
2023-02-04T05:49:34.307Z,-4.41
2023-02-04T05:51:37.043Z,-4.38
2023-02-04T05:53:39.690Z,-4.34
2023-02-04T05:55:42.785Z,-4.30
2023-02-04T05:57:45.460Z,-4.27
2023-02-04T05:59:48.120Z,-4.21
2023-02-04T06:01:50.773Z,-4.17
2023-02-04T06:03:53.676Z,-4.11
2023-02-04T06:05:56.935Z,-4.05
2023-02-04T06:08:00.151Z,-4.01
2023-02-04T06:10:03.700Z,-4.00
2023-02-04T06:12:06.674Z,-3.94
2023-02-04T06:14:10.926Z,-3.84
2023-02-04T06:16:14.967Z,-3.80
2023-02-04T06:18:17.775Z,-3.71
2023-02-04T06:20:20.440Z,-3.63
2023-02-04T06:22:24.868Z,-3.56
2023-02-04T06:24:27.493Z,-3.51
2023-02-04T06:26:30.199Z,-3.46
2023-02-04T06:28:32.943Z,-3.41
2023-02-04T06:30:37.624Z,-3.35
2023-02-04T06:32:40.631Z,-3.26
2023-02-04T06:34:43.304Z,-3.17
2023-02-04T06:36:45.886Z,-3.11
2023-02-04T06:38:48.598Z,-3.06
2023-02-04T06:40:53.875Z,-3.05
2023-02-04T06:42:56.494Z,-3.03
2023-02-04T06:44:59.116Z,-2.95
2023-02-04T06:47:01.810Z,-2.87
2023-02-04T06:49:04.401Z,-2.79
2023-02-04T06:51:07.019Z,-2.74
2023-02-04T06:53:09.757Z,-2.69
2023-02-04T06:55:13.174Z,-2.69
2023-02-04T06:57:15.751Z,-2.64
2023-02-04T06:59:18.901Z,-2.61
2023-02-04T07:01:21.669Z,-2.59
2023-02-04T07:03:24.299Z,-2.57
2023-02-04T07:05:27.008Z,-2.51
2023-02-04T07:07:30.037Z,-2.42
2023-02-04T07:09:32.770Z,-2.40
2023-02-04T07:11:37.005Z,-2.36
2023-02-04T07:13:39.695Z,-2.34
2023-02-04T07:15:42.389Z,-2.32
2023-02-04T07:17:45.080Z,-2.27
2023-02-04T07:19:47.747Z,-2.25
2023-02-04T07:21:54.222Z,-2.22
2023-02-04T07:23:56.840Z,-2.19
2023-02-04T07:25:59.726Z,-2.18
2023-02-04T07:28:03.976Z,-2.16
2023-02-04T07:30:07.315Z,-2.17
2023-02-04T07:32:09.993Z,-2.18
2023-02-04T07:34:14.296Z,-2.20
2023-02-04T07:36:17.014Z,-2.22
2023-02-04T07:38:19.651Z,-2.18
2023-02-04T07:40:22.358Z,-2.15
2023-02-04T07:42:25.015Z,-2.10
2023-02-04T07:44:27.692Z,-2.13
2023-02-04T07:46:30.631Z,-2.16
2023-02-04T07:48:33.318Z,-2.23
2023-02-04T07:50:36.061Z,-2.21
2023-02-04T07:52:38.968Z,-2.23
2023-02-04T07:54:41.781Z,-2.17
2023-02-04T07:56:51.990Z,-2.18
2023-02-04T07:58:54.738Z,-2.21
2023-02-04T08:00:57.400Z,-2.29
2023-02-04T08:03:00.094Z,-2.33
2023-02-04T08:05:03.196Z,-2.33
2023-02-04T08:07:05.988Z,-2.34
2023-02-04T08:09:08.761Z,-2.42
2023-02-04T08:11:11.499Z,-2.39
2023-02-04T08:13:14.352Z,-2.37
2023-02-04T08:15:17.152Z,-2.40
2023-02-04T08:17:19.738Z,-2.30
2023-02-04T08:19:22.732Z,-2.23
2023-02-04T08:21:25.312Z,-2.21
2023-02-04T08:23:28.024Z,-2.27
2023-02-04T08:25:30.591Z,-2.24
2023-02-04T08:27:33.209Z,-2.23
2023-02-04T08:29:35.880Z,-2.23
2023-02-04T08:31:39.297Z,-2.22
2023-02-04T08:33:42.028Z,-2.21
2023-02-04T08:35:44.733Z,-2.27
2023-02-04T08:37:47.419Z,-2.26
2023-02-04T08:39:50.056Z,-2.23
2023-02-04T08:41:52.744Z,-2.14
2023-02-04T08:43:55.534Z,-2.05
2023-02-04T08:45:58.112Z,-2.01
2023-02-04T08:48:00.703Z,-2.06
2023-02-04T08:50:03.738Z,-2.08
2023-02-04T08:52:08.100Z,-2.11
2023-02-04T08:54:10.723Z,-2.15
2023-02-04T08:56:16.746Z,-2.23
2023-02-04T08:58:19.468Z,-2.31
2023-02-04T09:00:23.422Z,-2.42
2023-02-04T09:02:26.068Z,-2.46
2023-02-04T09:04:29.589Z,-2.45
2023-02-04T09:06:32.198Z,-2.46
2023-02-04T09:08:34.844Z,-2.45
2023-02-04T09:10:37.499Z,-2.40
2023-02-04T09:12:40.116Z,-2.33
2023-02-04T09:14:42.712Z,-2.19
2023-02-04T09:16:45.515Z,-2.03
2023-02-04T09:18:48.183Z,-1.85
2023-02-04T09:20:51.186Z,-1.78
2023-02-04T09:22:53.961Z,-1.67
2023-02-04T09:24:56.637Z,-1.55
2023-02-04T09:26:59.319Z,-1.47
2023-02-04T09:29:01.891Z,-1.43
2023-02-04T09:31:06.586Z,-1.38
2023-02-04T09:33:11.081Z,-1.33
2023-02-04T09:35:13.832Z,-1.22
2023-02-04T09:37:16.442Z,-1.11
2023-02-04T09:39:19.016Z,-0.95
2023-02-04T09:41:21.751Z,-0.76
2023-02-04T09:43:30.751Z,-0.65
2023-02-04T09:45:35.410Z,-0.57
2023-02-04T09:47:38.397Z,-0.56
2023-02-04T09:49:42.245Z,-0.61
2023-02-04T09:51:46.879Z,-0.63
2023-02-04T09:53:50.692Z,-0.64
2023-02-04T09:55:53.382Z,-0.70
2023-02-04T09:57:56.045Z,-0.70
2023-02-04T09:59:59.128Z,-0.68
2023-02-04T10:02:03.423Z,-0.67
2023-02-04T10:04:08.950Z,-0.64
2023-02-04T10:06:11.603Z,-0.62
2023-02-04T10:08:17.613Z,-0.65
2023-02-04T10:10:25.366Z,-0.68
2023-02-04T10:12:28.423Z,-0.66
2023-02-04T10:14:31.035Z,-0.57
2023-02-04T10:16:35.395Z,-0.48
2023-02-04T10:18:38.685Z,-0.48
2023-02-04T10:20:41.297Z,-0.48
2023-02-04T10:22:44.409Z,-0.51
2023-02-04T10:24:47.260Z,-0.52
2023-02-04T10:26:49.932Z,-0.52
2023-02-04T10:29:09.831Z,-0.55
2023-02-04T10:31:33.872Z,-0.54
2023-02-04T10:33:38.719Z,-0.50
2023-02-04T10:35:49.765Z,-0.52
2023-02-04T10:38:06.958Z,-0.52
2023-02-04T10:40:27.890Z,-0.52
2023-02-04T10:42:32.098Z,-0.54
2023-02-04T10:44:36.203Z,-0.49
2023-02-04T10:46:39.044Z,-0.44
2023-02-04T10:48:42.632Z,-0.47
2023-02-04T10:50:47.603Z,-0.51
2023-02-04T10:53:18.224Z,-0.54
2023-02-04T10:55:24.239Z,-0.61
2023-02-04T10:57:30.201Z,-0.65
2023-02-04T10:59:33.500Z,-0.68
2023-02-04T11:01:36.112Z,-0.67
2023-02-04T11:03:40.318Z,-0.68
2023-02-04T11:05:42.953Z,-0.69
2023-02-04T11:07:47.269Z,-0.66
2023-02-04T11:09:50.217Z,-0.64
2023-02-04T11:11:53.063Z,-0.64
2023-02-04T11:13:55.989Z,-0.71
2023-02-04T11:16:30.720Z,-0.74
2023-02-04T11:19:03.786Z,-0.83
2023-02-04T11:21:34.409Z,-0.92
2023-02-04T11:23:37.560Z,-1.02
2023-02-04T11:25:40.660Z,-1.14
2023-02-04T11:27:44.028Z,-1.28
2023-02-04T11:29:48.088Z,-1.34
2023-02-04T11:32:00.556Z,-1.39
2023-02-04T11:34:25.975Z,-1.38
2023-02-04T11:36:29.684Z,-1.31
2023-02-04T11:38:33.449Z,-1.33
2023-02-04T11:40:38.923Z,-1.30
2023-02-04T11:42:43.045Z,-1.23
2023-02-04T11:44:59.494Z,-1.24
2023-02-04T11:47:09.579Z,-1.32
2023-02-04T11:49:20.237Z,-1.31
2023-02-04T11:51:30.097Z,-1.31
2023-02-04T11:53:34.558Z,-1.38
2023-02-04T11:55:46.419Z,-1.43
2023-02-04T11:57:55.226Z,-1.52
2023-02-04T12:00:00.398Z,-1.59
2023-02-04T12:02:15.139Z,-1.65
2023-02-04T12:04:25.849Z,-1.68
2023-02-04T12:06:34.059Z,-1.75
2023-02-04T12:08:37.051Z,-1.75
2023-02-04T12:10:40.106Z,-1.71
2023-02-04T12:12:55.999Z,-1.71
2023-02-04T12:15:03.471Z,-1.71
2023-02-04T12:17:19.483Z,-1.79
2023-02-04T12:19:22.793Z,-1.77
2023-02-04T12:21:25.360Z,-1.78
2023-02-04T12:23:30.173Z,-1.82
2023-02-04T12:25:33.164Z,-1.87
2023-02-04T12:27:35.940Z,-1.90
2023-02-04T12:29:38.665Z,-1.98
2023-02-04T12:31:41.322Z,-2.10
2023-02-04T12:33:43.920Z,-2.10
2023-02-04T12:35:46.819Z,-2.16
2023-02-04T12:37:49.467Z,-2.25
2023-02-04T12:39:52.180Z,-2.24
2023-02-04T12:41:54.892Z,-2.29
2023-02-04T12:43:57.521Z,-2.32
2023-02-04T12:46:00.180Z,-2.40
2023-02-04T12:48:02.921Z,-2.47
2023-02-04T12:50:06.503Z,-2.57
2023-02-04T12:52:09.097Z,-2.64
2023-02-04T12:54:11.695Z,-2.69
2023-02-04T12:56:15.321Z,-2.70
2023-02-04T12:58:17.921Z,-2.77
2023-02-04T13:00:22.366Z,-2.84
2023-02-04T13:02:25.011Z,-2.92
2023-02-04T13:04:27.737Z,-3.00
2023-02-04T13:06:30.722Z,-3.11
2023-02-04T13:08:33.350Z,-3.22
2023-02-04T13:10:35.964Z,-3.27
2023-02-04T13:12:38.691Z,-3.34
2023-02-04T13:14:42.931Z,-3.44
2023-02-04T13:16:45.535Z,-3.55
2023-02-04T13:18:48.241Z,-3.64
2023-02-04T13:20:50.867Z,-3.71
2023-02-04T13:22:53.543Z,-3.77
2023-02-04T13:24:56.115Z,-3.84
2023-02-04T13:26:58.772Z,-3.91
2023-02-04T13:29:01.364Z,-3.98
2023-02-04T13:31:04.576Z,-4.01
2023-02-04T13:33:07.253Z,-4.10
2023-02-04T13:35:09.917Z,-4.20
2023-02-04T13:37:12.689Z,-4.32
2023-02-04T13:39:15.413Z,-4.41
2023-02-04T13:41:18.035Z,-4.49
2023-02-04T13:43:20.747Z,-4.58
2023-02-04T13:45:23.532Z,-4.68
2023-02-04T13:47:26.133Z,-4.78
2023-02-04T13:49:28.751Z,-4.82
2023-02-04T13:51:31.463Z,-4.91
2023-02-04T13:53:34.117Z,-4.98
2023-02-04T13:55:36.795Z,-5.02
2023-02-04T13:57:39.430Z,-5.06
2023-02-04T13:59:42.045Z,-5.08
2023-02-04T14:01:44.678Z,-5.15
2023-02-04T14:03:47.457Z,-5.15
2023-02-04T14:05:50.089Z,-5.13
2023-02-04T14:07:52.856Z,-5.14
2023-02-04T14:10:14.021Z,-5.13
2023-02-04T14:12:16.641Z,-5.14
2023-02-04T14:14:19.318Z,-5.14
2023-02-04T14:16:22.233Z,-5.13
2023-02-04T14:18:24.876Z,-5.10
2023-02-04T14:20:27.666Z,-5.08
2023-02-04T14:22:30.274Z,-5.06
2023-02-04T14:24:32.957Z,-5.03
2023-02-04T14:26:35.490Z,-5.03
2023-02-04T14:28:38.053Z,-5.04
2023-02-04T14:30:40.697Z,-4.99
2023-02-04T14:32:43.457Z,-4.97
2023-02-04T14:34:46.036Z,-4.94
2023-02-04T14:36:48.656Z,-4.91
2023-02-04T14:38:51.565Z,-4.90
2023-02-04T14:40:54.239Z,-4.90
2023-02-04T14:42:56.842Z,-4.88
2023-02-04T14:44:59.516Z,-4.87
2023-02-04T14:47:02.358Z,-4.85
2023-02-04T14:49:04.942Z,-4.84
2023-02-04T14:51:07.544Z,-4.87
2023-02-04T14:53:10.241Z,-4.81
2023-02-04T14:55:14.576Z,-4.80
2023-02-04T14:57:17.265Z,-4.81
2023-02-04T14:59:19.829Z,-4.85
2023-02-04T15:01:22.586Z,-4.84
2023-02-04T15:03:25.221Z,-4.87
2023-02-04T15:05:27.968Z,-4.88
2023-02-04T15:07:30.558Z,-4.96
2023-02-04T15:09:33.364Z,-4.97
2023-02-04T15:11:36.004Z,-5.00
2023-02-04T15:13:38.601Z,-5.07
2023-02-04T15:15:41.349Z,-5.14
2023-02-04T15:17:43.909Z,-5.16
2023-02-04T15:19:46.570Z,-5.23
2023-02-04T15:21:49.398Z,-5.30
2023-02-04T15:23:52.020Z,-5.32
2023-02-04T15:25:57.619Z,-5.35
2023-02-04T15:28:00.285Z,-5.39
2023-02-04T15:30:03.079Z,-5.45
2023-02-04T15:32:09.930Z,-5.48
2023-02-04T15:34:12.879Z,-5.52
2023-02-04T15:36:15.675Z,-5.52
2023-02-04T15:38:18.380Z,-5.50
2023-02-04T15:40:21.117Z,-5.49
2023-02-04T15:42:24.051Z,-5.46
2023-02-04T15:44:27.306Z,-5.45
2023-02-04T15:46:29.976Z,-5.45
2023-02-04T15:48:32.707Z,-5.43
2023-02-04T15:50:35.499Z,-5.46
2023-02-04T15:52:38.155Z,-5.49
2023-02-04T15:54:40.860Z,-5.53
2023-02-04T15:56:44.504Z,-5.52
2023-02-04T15:58:47.239Z,-5.55
2023-02-04T16:00:49.887Z,-5.55
2023-02-04T16:02:52.757Z,-5.59
2023-02-04T16:04:55.432Z,-5.59
2023-02-04T16:06:59.697Z,-5.57
2023-02-04T16:09:02.884Z,-5.56
2023-02-04T16:11:06.219Z,-5.53
2023-02-04T16:13:08.972Z,-5.52
2023-02-04T16:15:11.610Z,-5.48
2023-02-04T16:17:14.260Z,-5.49
2023-02-04T16:19:16.866Z,-5.55
2023-02-04T16:21:19.525Z,-5.58
2023-02-04T16:23:22.200Z,-5.66
2023-02-04T16:25:25.503Z,-5.64
2023-02-04T16:27:28.235Z,-5.66
2023-02-04T16:29:31.020Z,-5.64
2023-02-04T16:31:33.764Z,-5.70
2023-02-04T16:33:36.656Z,-5.69
2023-02-04T16:36:02.109Z,-5.73
2023-02-04T16:38:04.771Z,-5.74
2023-02-04T16:40:08.748Z,-5.74
2023-02-04T16:42:12.621Z,-5.75
2023-02-04T16:44:15.253Z,-5.83
2023-02-04T16:46:19.048Z,-5.86
2023-02-04T16:48:21.781Z,-5.92
2023-02-04T16:50:24.614Z,-5.97
2023-02-04T16:52:31.826Z,-5.97
2023-02-04T16:54:34.979Z,-5.99
2023-02-04T16:56:37.813Z,-6.02
2023-02-04T16:58:40.602Z,-6.04
2023-02-04T17:00:44.292Z,-6.09
2023-02-04T17:02:47.017Z,-6.08
2023-02-04T17:04:49.727Z,-6.06
2023-02-04T17:06:53.064Z,-6.06
2023-02-04T17:08:56.246Z,-6.08
2023-02-04T17:11:18.458Z,-6.09
2023-02-04T17:13:22.577Z,-6.13
2023-02-04T17:15:25.262Z,-6.14
2023-02-04T17:17:28.064Z,-6.15
2023-02-04T17:19:31.491Z,-6.14
2023-02-04T17:21:34.154Z,-6.18
2023-02-04T17:23:37.034Z,-6.20
2023-02-04T17:25:39.681Z,-6.21
2023-02-04T17:27:42.461Z,-6.20
2023-02-04T17:29:45.263Z,-6.19
2023-02-04T17:31:48.255Z,-6.19
2023-02-04T17:33:51.079Z,-6.17
2023-02-04T17:35:53.656Z,-6.16
2023-02-04T17:37:56.282Z,-6.17
2023-02-04T17:39:59.068Z,-6.13
2023-02-04T17:42:01.892Z,-6.16
2023-02-04T17:44:04.797Z,-6.14
2023-02-04T17:46:07.460Z,-6.12
2023-02-04T17:48:10.178Z,-6.13
2023-02-04T17:50:12.864Z,-6.23
2023-02-04T17:52:15.601Z,-6.21
2023-02-04T17:54:18.279Z,-6.22
2023-02-04T17:56:21.684Z,-6.22
2023-02-04T17:58:27.509Z,-6.24
2023-02-04T18:00:31.543Z,-6.26
2023-02-04T18:02:34.242Z,-6.26
2023-02-04T18:04:37.271Z,-6.28
2023-02-04T18:06:40.352Z,-6.31
2023-02-04T18:08:42.966Z,-6.32
2023-02-04T18:10:50.452Z,-6.35
2023-02-04T18:12:53.155Z,-6.38
2023-02-04T18:14:55.791Z,-6.39
2023-02-04T18:17:00.661Z,-6.40
2023-02-04T18:19:30.399Z,-6.38
2023-02-04T18:21:33.424Z,-6.37
2023-02-04T18:23:36.134Z,-6.39
2023-02-04T18:25:38.718Z,-6.38
2023-02-04T18:27:41.337Z,-6.38
2023-02-04T18:29:47.223Z,-6.37
2023-02-04T18:31:53.926Z,-6.39
2023-02-04T18:33:57.537Z,-6.37
2023-02-04T18:36:03.055Z,-6.38
2023-02-04T18:38:21.391Z,-6.36
2023-02-04T18:40:31.553Z,-6.35
2023-02-04T18:42:36.764Z,-6.33
2023-02-04T18:44:39.913Z,-6.28
2023-02-04T18:46:50.612Z,-6.34
2023-02-04T18:48:59.103Z,-6.26
2023-02-04T18:51:02.684Z,-6.26
2023-02-04T18:53:08.379Z,-6.28
2023-02-04T18:55:23.457Z,-6.28
2023-02-04T18:57:38.028Z,-6.27
2023-02-04T18:59:41.450Z,-6.23
2023-02-04T19:01:46.141Z,-6.17
2023-02-04T19:03:53.081Z,-6.18
2023-02-04T19:05:59.525Z,-6.18
2023-02-04T19:08:05.026Z,-6.19
2023-02-04T19:10:26.281Z,-6.19
2023-02-04T19:12:28.891Z,-6.18
2023-02-04T19:14:43.523Z,-6.17
2023-02-04T19:16:47.324Z,-6.17
2023-02-04T19:18:50.881Z,-6.21
2023-02-04T19:20:54.378Z,-6.19
2023-02-04T19:22:58.505Z,-6.21
2023-02-04T19:25:22.591Z,-6.24
2023-02-04T19:27:34.605Z,-6.27
2023-02-04T19:29:42.410Z,-6.31
2023-02-04T19:31:45.540Z,-6.30
2023-02-04T19:33:50.954Z,-6.33
2023-02-04T19:35:53.929Z,-6.34
2023-02-04T19:38:00.655Z,-6.35
2023-02-04T19:40:23.202Z,-6.36
2023-02-04T19:42:33.493Z,-6.36
2023-02-04T19:44:43.295Z,-6.36
2023-02-04T19:46:46.023Z,-6.38
2023-02-04T19:48:48.735Z,-6.36
2023-02-04T19:50:53.216Z,-6.34
2023-02-04T19:53:05.424Z,-6.34
2023-02-04T19:55:17.554Z,-6.35
2023-02-04T19:57:26.277Z,-6.39
2023-02-04T19:59:33.884Z,-6.36
2023-02-04T20:01:36.974Z,-6.37
2023-02-04T20:03:47.613Z,-6.40
2023-02-04T20:05:50.701Z,-6.40
2023-02-04T20:07:53.499Z,-6.41
2023-02-04T20:10:17.019Z,-6.41
2023-02-04T20:12:20.350Z,-6.43
2023-02-04T20:14:41.837Z,-6.44
2023-02-04T20:16:52.321Z,-6.46
2023-02-04T20:18:55.702Z,-6.45
2023-02-04T20:20:58.349Z,-6.46
2023-02-04T20:23:02.971Z,-6.46
2023-02-04T20:25:31.930Z,-6.47
2023-02-04T20:27:41.329Z,-6.50
2023-02-04T20:29:44.129Z,-6.50
2023-02-04T20:31:46.670Z,-6.52
2023-02-04T20:33:52.804Z,-6.51
2023-02-04T20:36:26.279Z,-6.53
2023-02-04T20:38:28.923Z,-6.55
2023-02-04T20:40:36.476Z,-6.55
2023-02-04T20:42:53.001Z,-6.57
2023-02-04T20:45:04.970Z,-6.55
2023-02-04T20:47:19.539Z,-6.57
2023-02-04T20:49:25.004Z,-6.59
2023-02-04T20:51:27.581Z,-6.57
2023-02-04T20:53:52.760Z,-6.59
2023-02-04T20:56:04.125Z,-6.61
2023-02-04T20:58:20.066Z,-6.63
2023-02-04T21:00:35.040Z,-6.69
2023-02-04T21:02:39.136Z,-6.75
2023-02-04T21:04:47.116Z,-6.75
2023-02-04T21:07:00.990Z,-6.81
2023-02-04T21:09:09.445Z,-6.86
2023-02-04T21:11:12.112Z,-6.92
2023-02-04T21:13:14.680Z,-6.91
2023-02-04T21:15:17.401Z,-6.94
2023-02-04T21:17:20.058Z,-6.95
2023-02-04T21:19:25.213Z,-6.96
2023-02-04T21:21:28.958Z,-6.96
2023-02-04T21:23:31.684Z,-6.99
2023-02-04T21:25:34.546Z,-7.00
2023-02-04T21:27:37.356Z,-7.02
2023-02-04T21:29:40.001Z,-7.04
2023-02-04T21:31:43.597Z,-7.06
2023-02-04T21:33:46.292Z,-7.07
2023-02-04T21:35:49.061Z,-7.10
2023-02-04T21:37:52.716Z,-7.12
2023-02-04T21:39:55.424Z,-7.12
2023-02-04T21:42:10.507Z,-7.14
2023-02-04T21:44:13.348Z,-7.17
2023-02-04T21:46:17.486Z,-7.23
2023-02-04T21:48:20.105Z,-7.25
2023-02-04T21:50:22.893Z,-7.28
2023-02-04T21:52:25.450Z,-7.28
2023-02-04T21:54:28.094Z,-7.28
2023-02-04T21:56:30.656Z,-7.31
2023-02-04T21:58:33.525Z,-7.33
2023-02-04T22:00:37.132Z,-7.34
2023-02-04T22:02:39.841Z,-7.39
2023-02-04T22:04:42.485Z,-7.40
2023-02-04T22:06:45.084Z,-7.44
2023-02-04T22:08:47.688Z,-7.46
2023-02-04T22:10:50.319Z,-7.45
2023-02-04T22:12:53.229Z,-7.47
2023-02-04T22:15:14.411Z,-7.47
2023-02-04T22:17:17.084Z,-7.45
2023-02-04T22:19:19.841Z,-7.45
2023-02-04T22:21:22.450Z,-7.44
2023-02-04T22:23:25.073Z,-7.42
2023-02-04T22:25:27.750Z,-7.42
2023-02-04T22:27:30.345Z,-7.42
2023-02-04T22:29:33.757Z,-7.44
2023-02-04T22:31:36.780Z,-7.45
2023-02-04T22:33:39.371Z,-7.44
2023-02-04T22:35:42.075Z,-7.48
2023-02-04T22:37:44.842Z,-7.45
2023-02-04T22:39:47.492Z,-7.44
2023-02-04T22:41:50.299Z,-7.41
2023-02-04T22:43:52.913Z,-7.38
2023-02-04T22:45:55.560Z,-7.38
2023-02-04T22:47:58.147Z,-7.37
2023-02-04T22:50:00.735Z,-7.36
2023-02-04T22:52:04.304Z,-7.36
2023-02-04T22:54:06.939Z,-7.40
2023-02-04T22:56:09.582Z,-7.40
2023-02-04T22:58:12.145Z,-7.42
2023-02-04T23:00:15.475Z,-7.40
2023-02-04T23:02:18.266Z,-7.39
2023-02-04T23:04:20.991Z,-7.40
2023-02-04T23:06:23.864Z,-7.39
2023-02-04T23:08:26.785Z,-7.36
2023-02-04T23:10:29.387Z,-7.36
2023-02-04T23:12:32.008Z,-7.33
2023-02-04T23:14:34.567Z,-7.34
2023-02-04T23:16:37.250Z,-7.35
2023-02-04T23:18:39.936Z,-7.38
2023-02-04T23:20:42.797Z,-7.40
2023-02-04T23:22:45.413Z,-7.41
2023-02-04T23:24:49.731Z,-7.43
2023-02-04T23:26:52.438Z,-7.45
2023-02-04T23:28:55.764Z,-7.48
2023-02-04T23:30:58.545Z,-7.49
2023-02-04T23:33:01.301Z,-7.52
2023-02-04T23:35:04.035Z,-7.53
2023-02-04T23:37:06.979Z,-7.55
2023-02-04T23:39:09.563Z,-7.60
2023-02-04T23:41:12.387Z,-7.55
2023-02-04T23:43:15.434Z,-7.56
2023-02-04T23:45:18.056Z,-7.57
2023-02-04T23:47:20.708Z,-7.55
2023-02-04T23:49:23.291Z,-7.53
2023-02-04T23:51:26.078Z,-7.54
2023-02-04T23:53:28.676Z,-7.57
2023-02-04T23:55:33.297Z,-7.57
2023-02-04T23:57:36.330Z,-7.65
2023-02-04T23:59:42.421Z,-7.60
